Time;durP1;ratioP1;P1;durP2;ratioP2;P2;SDS_P1;SDS_P2;PMS_P1;PMS_P2;Temp;Humidity;BMP_temperature;BMP_pressure;BME280_temperature;BME280_humidity;BME280_pressure;Samples;Min_cycle;Max_cycle;Signal;HPM_P1;HPM_P2
2023/12/12 00:01:35;;;;;;;0.88;0.88;;;;;;;-8.76;93.72;99534.97;4973654;28;20050;-77
2023/12/12 00:04:03;;;;;;;1.08;1.08;;;;;;;-8.71;93.61;99539.88;4972658;28;20137;-76
2023/12/12 00:06:30;;;;;;;1.00;1.00;;;;;;;-8.65;93.83;99551.69;4972852;28;20081;-78
2023/12/12 00:09:00;;;;;;;1.00;1.00;;;;;;;-8.61;93.92;99534.81;4972712;28;20454;-78
2023/12/12 00:11:28;;;;;;;0.88;0.88;;;;;;;-8.62;93.83;99523.50;4972766;28;20509;-78
2023/12/12 00:14:30;;;;;;;1.10;1.10;;;;;;;-8.57;94.28;99517.97;4971287;28;20070;-78
2023/12/12 00:17:18;;;;;;;1.02;1.02;;;;;;;-8.74;93.98;99506.06;4970666;28;20465;-77
2023/12/12 00:19:50;;;;;;;0.90;0.90;;;;;;;-8.58;93.93;99511.91;4971952;28;20058;-78
2023/12/12 00:22:21;;;;;;;0.90;0.90;;;;;;;-8.56;93.70;99510.00;4972813;28;20061;-78
2023/12/12 00:24:48;;;;;;;1.10;1.10;;;;;;;-8.57;93.74;99518.78;4972615;28;20050;-78
2023/12/12 00:27:16;;;;;;;1.00;1.00;;;;;;;-8.59;93.52;99512.81;4972262;28;20065;-77
2023/12/12 00:29:46;;;;;;;1.10;1.10;;;;;;;-8.59;93.48;99520.66;4972301;28;20051;-78
2023/12/12 00:32:13;;;;;;;0.90;0.90;;;;;;;-8.61;93.50;99506.03;4971271;28;20047;-77
2023/12/12 00:34:40;;;;;;;1.25;1.20;;;;;;;-8.60;93.37;99490.22;4972723;28;20078;-77
2023/12/12 00:37:09;;;;;;;0.90;0.90;;;;;;;-8.60;93.12;99497.25;4972381;28;20055;-78
2023/12/12 00:39:38;;;;;;;1.50;1.40;;;;;;;-8.63;92.82;99500.91;4971222;28;20129;-78
2023/12/12 00:42:05;;;;;;;0.90;0.90;;;;;;;-8.64;92.90;99501.84;4972138;28;20506;-78
2023/12/12 00:44:36;;;;;;;0.90;0.90;;;;;;;-8.68;92.74;99499.56;4972399;28;20397;-78
2023/12/12 00:47:05;;;;;;;0.85;0.85;;;;;;;-8.72;92.44;99505.00;4971917;28;20046;-78
2023/12/12 00:49:32;;;;;;;1.10;1.10;;;;;;;-8.68;92.66;99499.56;4972309;28;20053;-78
2023/12/12 00:52:02;;;;;;;1.10;1.10;;;;;;;-8.72;92.28;99498.94;4971916;28;20102;-76
2023/12/12 00:54:30;;;;;;;1.00;1.00;;;;;;;-8.75;92.25;99522.72;4970877;28;20106;-79
2023/12/12 00:56:57;;;;;;;1.10;1.10;;;;;;;-8.78;92.46;99517.72;4971823;28;20101;-78
2023/12/12 00:59:24;;;;;;;0.93;0.93;;;;;;;-8.74;92.32;99509.50;4972304;28;20074;-78
2023/12/12 01:01:51;;;;;;;1.00;1.00;;;;;;;-8.72;91.98;99510.25;4971259;28;20113;-79
2023/12/12 01:04:18;;;;;;;1.00;1.00;;;;;;;-8.72;92.03;99502.41;4972364;28;20509;-77
2023/12/12 01:06:48;;;;;;;1.05;1.05;;;;;;;-8.72;91.66;99498.94;4972508;28;20109;-77
2023/12/12 01:09:15;;;;;;;0.90;0.90;;;;;;;-8.80;91.61;99496.06;4970748;28;20047;-78
2023/12/12 01:11:42;;;;;;;0.98;0.98;;;;;;;-8.82;91.55;99487.47;4971078;28;20105;-77
2023/12/12 01:14:10;;;;;;;0.93;0.93;;;;;;;-8.83;91.60;99499.72;4972468;28;20053;-77
2023/12/12 01:16:37;;;;;;;0.90;0.90;;;;;;;-8.82;91.52;99485.69;4970911;28;20050;-78
2023/12/12 01:19:04;;;;;;;1.10;1.10;;;;;;;-8.77;91.84;99495.81;4971692;28;20098;-78
2023/12/12 01:21:31;;;;;;;1.10;1.10;;;;;;;-8.81;91.69;99494.38;4972173;28;20109;-78
2023/12/12 01:23:59;;;;;;;1.00;1.00;;;;;;;-8.88;91.33;99482.69;4972129;28;20062;-80
2023/12/12 01:26:26;;;;;;;1.10;1.10;;;;;;;-8.89;91.44;99476.59;4972083;28;20074;-78
2023/12/12 01:28:54;;;;;;;0.90;0.90;;;;;;;-8.86;91.57;99472.94;4970193;28;20053;-77
2023/12/12 01:31:21;;;;;;;0.98;0.98;;;;;;;-8.84;91.57;99494.59;4973281;28;20055;-78
2023/12/12 01:33:51;;;;;;;1.00;1.00;;;;;;;-8.85;91.45;99478.06;4975714;28;20066;-78
2023/12/12 01:36:20;;;;;;;0.88;0.88;;;;;;;-8.86;91.53;99502.56;4990084;28;20067;-78
2023/12/12 01:38:48;;;;;;;1.10;1.10;;;;;;;-8.84;91.45;99495.41;4990489;28;20062;-78
2023/12/12 01:41:15;;;;;;;0.82;0.82;;;;;;;-8.84;91.48;99490.19;4957957;28;20514;-78
2023/12/12 01:43:43;;;;;;;1.00;1.00;;;;;;;-8.85;91.50;99499.00;4975864;28;20053;-78
2023/12/12 01:46:13;;;;;;;1.00;1.00;;;;;;;-8.85;91.65;99492.94;4989959;28;20058;-78
2023/12/12 01:48:41;;;;;;;0.90;0.90;;;;;;;-8.84;91.82;99489.34;4975390;28;20081;-78
2023/12/12 01:51:46;;;;;;;0.90;0.90;;;;;;;-8.78;91.70;99486.31;4974015;28;20559;-78
2023/12/12 01:54:18;;;;;;;1.02;1.02;;;;;;;-8.96;91.44;99463.13;4974244;28;20050;-78
2023/12/12 01:56:48;;;;;;;1.00;1.00;;;;;;;-8.82;91.69;99483.06;4942133;28;20457;-78
2023/12/12 01:59:16;;;;;;;0.90;0.90;;;;;;;-8.82;91.55;99490.09;4973564;28;20082;-78
2023/12/12 02:01:43;;;;;;;0.90;0.90;;;;;;;-8.87;91.69;99500.88;4973786;28;20057;-78
2023/12/12 02:04:11;;;;;;;1.27;1.20;;;;;;;-8.85;91.94;99492.94;4974755;28;20082;-78
2023/12/12 02:06:40;;;;;;;1.23;1.17;;;;;;;-8.86;92.09;99484.25;4973820;28;20079;-78
2023/12/12 02:09:08;;;;;;;1.00;1.00;;;;;;;-8.96;92.33;99491.91;4974718;28;20486;-77
2023/12/12 02:11:35;;;;;;;0.98;0.98;;;;;;;-9.02;92.72;99481.88;4989767;28;20054;-78
2023/12/12 02:14:02;;;;;;;0.95;0.95;;;;;;;-8.99;93.09;99486.03;4974694;28;20043;-78
2023/12/12 02:16:32;;;;;;;1.10;1.10;;;;;;;-8.96;93.50;99491.09;4974802;28;20047;-77
2023/12/12 02:19:03;;;;;;;1.00;1.00;;;;;;;-8.97;93.82;99486.78;4973477;28;20057;-78
2023/12/12 02:21:51;;;;;;;1.00;1.00;;;;;;;-9.02;93.92;99483.66;4973802;28;20050;-78
2023/12/12 02:24:19;;;;;;;1.10;1.10;;;;;;;-8.96;94.36;99491.09;4974771;28;20059;-78
2023/12/12 02:26:46;;;;;;;1.13;1.13;;;;;;;-9.00;94.77;99473.94;4973768;28;20085;-78
2023/12/12 02:29:13;;;;;;;1.05;1.05;;;;;;;-8.96;95.12;99485.84;4973875;28;20138;-79
2023/12/12 02:31:41;;;;;;;0.80;0.80;;;;;;;-8.95;95.33;99495.34;4973530;28;20053;-78
2023/12/12 02:34:08;;;;;;;0.90;0.90;;;;;;;-8.96;95.62;99491.91;4973124;28;20046;-79
2023/12/12 02:36:35;;;;;;;1.00;1.00;;;;;;;-8.93;95.71;99477.78;4974815;28;20050;-79
2023/12/12 02:39:03;;;;;;;0.90;0.90;;;;;;;-8.96;95.80;99481.44;4974261;28;20051;-78
2023/12/12 02:41:30;;;;;;;1.10;1.10;;;;;;;-8.98;96.07;99485.13;4974003;28;20454;-77
2023/12/12 02:43:57;;;;;;;0.90;0.90;;;;;;;-8.93;96.27;99479.56;4972786;28;20529;-79
2023/12/12 02:46:24;;;;;;;0.90;0.90;;;;;;;-8.92;96.35;99470.75;4974098;28;20054;-78
2023/12/12 02:48:52;;;;;;;1.00;1.00;;;;;;;-8.97;96.44;99485.00;4972795;28;20509;-78
2023/12/12 02:51:20;;;;;;;1.00;1.00;;;;;;;-9.00;96.74;99464.28;4974550;28;20061;-78
2023/12/12 02:53:47;;;;;;;1.08;1.08;;;;;;;-8.92;96.67;99471.59;4972968;28;20422;-79
2023/12/12 02:56:15;;;;;;;0.88;0.88;;;;;;;-8.87;96.87;99472.09;4972308;28;20113;-79
2023/12/12 02:58:42;;;;;;;0.90;0.90;;;;;;;-8.87;96.88;99479.94;4973156;28;20070;-78
2023/12/12 03:01:12;;;;;;;0.90;0.90;;;;;;;-8.87;96.62;99479.13;4973772;28;20054;-77
2023/12/12 03:03:44;;;;;;;1.13;1.13;;;;;;;-8.86;96.92;99470.31;4972993;28;20062;-78
2023/12/12 03:06:12;;;;;;;1.10;1.10;;;;;;;-8.89;96.71;99473.16;4973734;28;20150;-79
2023/12/12 03:08:39;;;;;;;0.80;0.80;;;;;;;-8.92;96.87;99460.31;4974012;28;20070;-79
2023/12/12 03:11:07;;;;;;;0.90;0.90;;;;;;;-8.85;97.01;99472.84;4988716;28;20050;-77
2023/12/12 03:13:34;;;;;;;0.90;0.90;;;;;;;-8.84;96.82;99474.50;4972345;28;20102;-78
2023/12/12 03:16:02;;;;;;;0.82;0.82;;;;;;;-8.80;97.05;99475.94;4973188;28;20469;-79
2023/12/12 03:18:30;;;;;;;1.10;1.10;;;;;;;-8.78;96.87;99462.78;4988688;28;20056;-79
2023/12/12 03:20:57;;;;;;;0.90;0.90;;;;;;;-8.75;96.83;99463.38;4972120;28;20059;-79
2023/12/12 03:23:24;;;;;;;1.10;1.10;;;;;;;-8.73;96.70;99455.44;4973548;28;20061;-78
2023/12/12 03:25:52;;;;;;;0.98;0.98;;;;;;;-8.73;97.02;99448.41;4956081;28;20133;-78
2023/12/12 03:28:19;;;;;;;0.93;0.93;;;;;;;-8.72;96.73;99446.63;4972736;28;20058;-75
2023/12/12 03:30:47;;;;;;;0.90;0.90;;;;;;;-8.70;96.76;99443.91;4988064;28;20047;-75
2023/12/12 03:33:14;;;;;;;1.00;1.00;;;;;;;-8.73;96.59;99440.56;4973199;28;20043;-76
2023/12/12 03:35:42;;;;;;;0.90;0.90;;;;;;;-8.72;96.72;99450.06;4972951;28;20059;-75
2023/12/12 03:38:09;;;;;;;0.73;0.73;;;;;;;-8.68;96.63;99441.97;4972557;28;20081;-76
2023/12/12 03:40:37;;;;;;;1.00;1.00;;;;;;;-8.69;96.63;99446.38;4972970;28;20077;-75
2023/12/12 03:43:04;;;;;;;1.00;1.00;;;;;;;-8.70;96.35;99430.81;4972723;28;20050;-75
2023/12/12 03:45:31;;;;;;;1.00;1.00;;;;;;;-8.70;96.53;99443.91;4972946;28;20125;-75
2023/12/12 03:48:00;;;;;;;0.80;0.80;;;;;;;-8.69;96.43;99432.47;4972612;28;20081;-76
2023/12/12 03:50:28;;;;;;;0.88;0.88;;;;;;;-8.68;96.80;99437.63;4987449;28;20050;-76
2023/12/12 03:52:58;;;;;;;0.80;0.80;;;;;;;-8.63;96.65;99439.88;4972102;28;20053;-76
2023/12/12 03:55:26;;;;;;;1.10;1.10;;;;;;;-8.65;96.64;99445.22;4972679;28;20074;-77
2023/12/12 03:57:53;;;;;;;1.10;1.10;;;;;;;-8.69;96.64;99429.84;4972039;28;20069;-78
2023/12/12 04:00:24;;;;;;;0.93;0.93;;;;;;;-8.66;96.60;99440.09;4971343;28;20058;-78
2023/12/12 04:02:51;;;;;;;1.40;1.30;;;;;;;-8.72;96.87;99420.44;4972423;28;20473;-78
2023/12/12 04:05:19;;;;;;;0.88;0.88;;;;;;;-8.62;97.05;99429.31;4972839;28;20050;-77
2023/12/12 04:07:46;;;;;;;0.93;0.93;;;;;;;-8.58;96.87;99433.38;4972777;28;20059;-78
2023/12/12 04:10:13;;;;;;;0.90;0.90;;;;;;;-8.54;96.76;99433.97;4972439;28;20141;-78
2023/12/12 04:12:40;;;;;;;0.93;0.93;;;;;;;-8.52;96.66;99430.28;4972710;28;20053;-79
2023/12/12 04:15:08;;;;;;;1.05;1.05;;;;;;;-8.58;96.56;99428.13;4972308;28;20047;-78
2023/12/12 04:17:35;;;;;;;0.90;0.90;;;;;;;-8.57;96.55;99428.97;4972204;28;20138;-78
2023/12/12 04:20:05;;;;;;;0.90;0.90;;;;;;;-8.60;96.78;99435.25;4972073;28;20043;-78
2023/12/12 04:22:32;;;;;;;0.90;0.90;;;;;;;-8.61;96.38;99412.63;4970522;28;20425;-78
2023/12/12 04:25:00;;;;;;;0.80;0.80;;;;;;;-8.64;96.44;99415.50;4972054;28;20047;-78
2023/12/12 04:27:31;;;;;;;0.90;0.90;;;;;;;-8.63;96.73;99422.41;4955912;28;20043;-78
2023/12/12 04:30:01;;;;;;;0.80;0.80;;;;;;;-8.61;96.69;99423.09;4972706;28;20398;-78
2023/12/12 04:32:32;;;;;;;0.85;0.85;;;;;;;-8.57;96.60;99421.13;4971470;28;20058;-78
2023/12/12 04:35:05;;;;;;;0.93;0.93;;;;;;;-8.49;96.73;99416.16;4972658;28;20055;-78
2023/12/12 04:37:33;;;;;;;0.90;0.90;;;;;;;-8.53;96.68;99420.78;4971801;28;20509;-78
2023/12/12 04:40:04;;;;;;;1.00;1.00;;;;;;;-8.52;96.57;99379.72;4970688;28;20058;-78
2023/12/12 04:42:33;;;;;;;1.08;1.08;;;;;;;-8.61;96.34;99409.19;4971903;28;20047;-78
2023/12/12 04:45:03;;;;;;;0.80;0.80;;;;;;;-8.56;96.41;99410.53;4970493;28;20445;-78
2023/12/12 04:47:32;;;;;;;0.88;0.88;;;;;;;-8.54;96.41;99410.41;4965054;28;20055;-78
2023/12/12 04:50:00;;;;;;;1.00;1.00;;;;;;;-8.56;96.51;99396.59;4971773;28;20059;-78
2023/12/12 04:52:30;;;;;;;1.00;1.00;;;;;;;-8.59;96.34;99404.69;4971980;28;20046;-77
2023/12/12 04:54:58;;;;;;;0.90;0.90;;;;;;;-8.59;96.39;99420.38;4970953;28;20134;-78
2023/12/12 04:57:25;;;;;;;0.80;0.80;;;;;;;-8.57;96.28;99423.72;4972332;28;20063;-78
2023/12/12 04:59:52;;;;;;;1.00;1.00;;;;;;;-8.54;96.30;99428.72;4972261;28;20081;-78
2023/12/12 05:02:19;;;;;;;0.98;0.98;;;;;;;-8.55;96.32;99419.22;4972059;28;20069;-78
2023/12/12 05:04:47;;;;;;;1.00;1.00;;;;;;;-8.55;96.50;99430.53;4972398;28;20325;-78
2023/12/12 05:07:17;;;;;;;0.98;0.98;;;;;;;-8.50;96.39;99432.81;4990356;28;20065;-78
2023/12/12 05:09:44;;;;;;;1.00;1.00;;;;;;;-8.52;96.26;99426.84;4958251;28;20050;-78
2023/12/12 05:12:12;;;;;;;0.90;0.90;;;;;;;-8.50;96.21;99414.50;4974061;28;20676;-77
2023/12/12 05:14:42;;;;;;;1.00;1.00;;;;;;;-8.49;96.30;99421.38;4974533;28;20258;-78
2023/12/12 05:17:09;;;;;;;1.00;1.00;;;;;;;-8.49;96.00;99431.03;4974055;28;20054;-78
2023/12/12 05:19:37;;;;;;;1.02;1.02;;;;;;;-8.46;95.96;99425.56;4975609;28;20047;-78
2023/12/12 05:22:05;;;;;;;0.80;0.80;;;;;;;-8.41;96.04;99434.72;4975135;28;20167;-78
2023/12/12 05:24:33;;;;;;;0.80;0.80;;;;;;;-8.39;95.83;99438.03;4975073;28;20082;-77
2023/12/12 05:27:00;;;;;;;1.02;1.02;;;;;;;-8.40;95.63;99446.88;4989912;28;20046;-78
2023/12/12 05:29:28;;;;;;;0.90;0.90;;;;;;;-8.41;95.75;99445.19;4973728;28;20043;-77
2023/12/12 05:31:57;;;;;;;0.90;0.90;;;;;;;-8.33;95.72;99448.09;4975041;28;20101;-77
2023/12/12 05:34:31;;;;;;;0.90;0.90;;;;;;;-8.32;95.63;99446.28;4840320;28;10000711;-77
2023/12/12 05:36:58;;;;;;;0.90;0.90;;;;;;;-8.31;95.56;99435.69;4970041;28;20735;-77
2023/12/12 05:39:25;;;;;;;0.80;0.80;;;;;;;-8.29;95.35;99444.28;4971666;28;20051;-77
2023/12/12 05:41:53;;;;;;;0.90;0.90;;;;;;;-8.25;95.71;99439.66;4971402;28;20562;-77
2023/12/12 05:44:20;;;;;;;0.93;0.93;;;;;;;-8.24;95.39;99440.47;4959392;28;20081;-77
2023/12/12 05:46:47;;;;;;;1.00;1.00;;;;;;;-8.19;95.54;99443.59;4962284;28;20380;-77
2023/12/12 05:49:15;;;;;;;0.85;0.85;;;;;;;-8.18;95.16;99437.41;4951228;28;20047;-77
2023/12/12 05:51:43;;;;;;;0.80;0.80;;;;;;;-8.20;94.72;99440.16;4952569;28;20514;-78
2023/12/12 05:54:12;;;;;;;0.93;0.93;;;;;;;-8.20;94.90;99455.84;4958894;28;20069;-77
2023/12/12 05:56:59;;;;;;;0.85;0.85;;;;;;;-8.25;94.83;99426.56;4972868;28;20067;-78
2023/12/12 05:59:26;;;;;;;0.70;0.70;;;;;;;-8.20;94.67;99463.72;4960094;28;20083;-78
2023/12/12 06:01:54;;;;;;;0.70;0.70;;;;;;;-8.18;94.59;99450.50;4967820;28;20509;-77
2023/12/12 06:04:21;;;;;;;1.05;1.05;;;;;;;-8.17;94.41;99449.56;4963251;28;20136;-78
2023/12/12 06:06:49;;;;;;;0.98;0.98;;;;;;;-8.14;94.39;99450.16;4979355;28;20059;-78
2023/12/12 06:09:17;;;;;;;0.80;0.80;;;;;;;-8.09;94.34;99408.72;4976427;28;20072;-77
2023/12/12 06:11:44;;;;;;;1.02;1.02;;;;;;;-8.20;94.08;99457.63;4971229;28;20496;-77
2023/12/12 06:14:12;;;;;;;0.90;0.90;;;;;;;-8.21;94.16;99461.19;4984382;28;20112;-78
2023/12/12 06:16:39;;;;;;;0.80;0.80;;;;;;;-8.19;94.29;99465.38;4967860;28;20047;-77
2023/12/12 06:19:07;;;;;;;0.85;0.85;;;;;;;-8.22;94.03;99455.13;4982959;28;20132;-76
2023/12/12 06:21:34;;;;;;;0.90;0.90;;;;;;;-8.14;94.21;99470.28;4972575;28;20043;-76
2023/12/12 06:24:02;;;;;;;0.90;0.90;;;;;;;-8.11;94.40;99465.63;4970360;28;20469;-77
2023/12/12 06:26:31;;;;;;;0.75;0.75;;;;;;;-8.09;94.28;99457.66;4965861;28;20061;-76
2023/12/12 06:28:59;;;;;;;1.00;1.00;;;;;;;-8.02;94.13;99456.25;4977772;28;20050;-77
2023/12/12 06:31:26;;;;;;;0.93;0.93;;;;;;;-8.03;94.02;99462.44;4976871;28;20042;-79
2023/12/12 06:33:54;;;;;;;0.90;0.90;;;;;;;-8.00;94.13;99466.63;4951140;28;20126;-79
2023/12/12 06:36:22;;;;;;;1.00;1.00;;;;;;;-7.97;93.92;99459.38;4966455;28;20104;-77
2023/12/12 06:38:51;;;;;;;0.90;0.90;;;;;;;-7.96;93.88;99465.44;4979604;28;20061;-79
2023/12/12 06:41:19;;;;;;;1.17;1.17;;;;;;;-7.95;93.92;99451.38;4979572;28;20245;-79
2023/12/12 06:43:46;;;;;;;0.93;0.93;;;;;;;-7.90;93.67;99455.34;4976137;28;20089;-79
2023/12/12 06:46:17;;;;;;;1.00;1.00;;;;;;;-7.89;93.36;99464.03;4974677;28;20070;-78
2023/12/12 06:48:45;;;;;;;0.77;0.77;;;;;;;-7.91;93.11;99458.91;4995772;28;20133;-78
2023/12/12 06:51:14;;;;;;;0.80;0.80;;;;;;;-7.90;93.00;99447.47;4974872;28;20042;-77
2023/12/12 06:53:41;;;;;;;0.93;0.93;;;;;;;-7.94;92.96;99453.91;4974765;28;20047;-77
2023/12/12 06:56:09;;;;;;;0.93;0.93;;;;;;;-7.91;92.97;99469.38;4976306;28;20428;-77
2023/12/12 06:58:37;;;;;;;0.80;0.80;;;;;;;-7.89;92.89;99470.09;4973406;28;20307;-76
2023/12/12 07:01:04;;;;;;;1.02;1.02;;;;;;;-7.86;93.07;99456.75;4965256;28;20051;-76
2023/12/12 07:03:32;;;;;;;0.90;0.90;;;;;;;-7.77;93.04;99449.16;4935406;28;20536;-78
2023/12/12 07:06:02;;;;;;;1.00;1.00;;;;;;;-7.78;92.85;99455.34;4956098;28;20102;-77
2023/12/12 07:08:30;;;;;;;0.90;0.90;;;;;;;-7.81;92.70;99445.94;4973060;28;20050;-78
2023/12/12 07:10:57;;;;;;;1.10;1.10;;;;;;;-7.77;92.35;99472.72;4969243;28;20074;-76
2023/12/12 07:13:24;;;;;;;0.85;0.85;;;;;;;-7.86;92.15;99454.16;4976437;28;20047;-76
2023/12/12 07:15:51;;;;;;;0.85;0.85;;;;;;;-7.79;92.38;99453.69;4976010;28;20046;-79
2023/12/12 07:18:20;;;;;;;1.00;1.00;;;;;;;-7.72;92.37;99463.59;4975244;28;20750;-77
2023/12/12 07:20:48;;;;;;;1.00;1.00;;;;;;;-7.64;92.33;99455.16;4970332;28;20047;-77
2023/12/12 07:23:15;;;;;;;0.90;0.90;;;;;;;-7.61;92.39;99464.56;4969765;28;20429;-78
2023/12/12 07:25:46;;;;;;;0.93;0.93;;;;;;;-7.62;92.03;99468.97;4970395;28;20050;-77
2023/12/12 07:28:13;;;;;;;0.93;0.93;;;;;;;-7.56;92.02;99460.63;4965682;28;20070;-76
2023/12/12 07:30:40;;;;;;;0.90;0.90;;;;;;;-7.62;91.48;99458.50;4970254;28;20051;-76
2023/12/12 07:33:08;;;;;;;0.70;0.70;;;;;;;-7.61;91.55;99460.16;4976261;28;20051;-76
2023/12/12 07:35:35;;;;;;;0.88;0.88;;;;;;;-7.54;91.52;99466.59;4973793;28;20683;-76
2023/12/12 07:38:02;;;;;;;0.80;0.80;;;;;;;-7.48;91.25;99468.72;4974228;28;20097;-76
2023/12/12 07:40:30;;;;;;;0.80;0.80;;;;;;;-7.48;91.01;99449.53;4960597;28;20141;-77
2023/12/12 07:42:58;;;;;;;0.80;0.80;;;;;;;-7.47;90.95;99462.56;4969809;28;20047;-78
2023/12/12 07:45:25;;;;;;;0.85;0.85;;;;;;;-7.38;90.99;99453.13;4965983;28;20050;-77
2023/12/12 07:47:52;;;;;;;0.70;0.70;;;;;;;-7.32;90.81;99465.75;4983630;28;20078;-77
2023/12/12 07:50:20;;;;;;;1.10;1.10;;;;;;;-7.30;90.70;99463.00;4953708;28;20054;-77
2023/12/12 07:52:48;;;;;;;0.70;0.70;;;;;;;-7.35;90.48;99468.63;4952382;29;20151;-78
2023/12/12 07:55:16;;;;;;;0.70;0.70;;;;;;;-7.29;90.54;99467.28;4968478;28;20047;-77
2023/12/12 07:57:44;;;;;;;0.82;0.82;;;;;;;-7.23;90.33;99462.41;4953621;28;20079;-77
2023/12/12 08:00:12;;;;;;;1.10;1.10;;;;;;;-7.31;90.42;99461.34;4953246;28;20506;-77
2023/12/12 08:02:40;;;;;;;0.82;0.82;;;;;;;-7.24;90.33;99466.00;4968386;28;20051;-77
2023/12/12 08:05:08;;;;;;;0.90;0.90;;;;;;;-7.30;90.03;99484.00;4953336;28;20117;-77
2023/12/12 08:07:35;;;;;;;1.00;1.00;;;;;;;-7.35;90.20;99478.28;4953551;28;20054;-77
2023/12/12 08:10:03;;;;;;;0.85;0.85;;;;;;;-7.25;90.29;99477.44;4963536;28;20050;-77
2023/12/12 08:12:30;;;;;;;0.90;0.90;;;;;;;-7.23;90.20;99464.22;4971300;28;20047;-78
2023/12/12 08:14:57;;;;;;;1.00;1.00;;;;;;;-7.27;90.02;99468.84;4970968;28;20054;-77
2023/12/12 08:17:25;;;;;;;0.90;0.90;;;;;;;-7.23;90.13;99470.28;4972206;28;20051;-77
2023/12/12 08:19:52;;;;;;;1.00;1.00;;;;;;;-7.23;90.16;99472.06;4965991;28;20054;-77
2023/12/12 08:22:19;;;;;;;0.90;0.90;;;;;;;-7.20;90.09;99454.31;4957772;28;20131;-77
2023/12/12 08:24:50;;;;;;;0.90;0.90;;;;;;;-7.24;89.58;99457.28;4952706;28;20051;-78
2023/12/12 08:27:18;;;;;;;0.98;0.98;;;;;;;-7.18;89.90;99456.81;4952490;29;20051;-77
2023/12/12 08:29:48;;;;;;;0.90;0.90;;;;;;;-7.05;89.79;99452.25;4982608;28;20051;-78
2023/12/12 08:32:16;;;;;;;0.90;0.90;;;;;;;-7.06;89.49;99455.84;4952544;29;20066;-78
2023/12/12 08:34:44;;;;;;;1.10;1.10;;;;;;;-7.01;89.38;99453.69;4952824;29;20061;-78
2023/12/12 08:37:12;;;;;;;0.80;0.80;;;;;;;-6.99;88.99;99451.78;4967038;28;20039;-77
2023/12/12 08:39:41;;;;;;;0.90;0.90;;;;;;;-7.07;88.87;99459.41;4960599;28;20054;-77
2023/12/12 08:42:14;;;;;;;0.98;0.98;;;;;;;-7.08;89.04;99442.00;4971710;28;20046;-78
2023/12/12 08:44:42;;;;;;;0.90;0.90;;;;;;;-7.05;88.58;99451.44;4972694;28;20054;-78
2023/12/12 08:47:12;;;;;;;0.98;0.98;;;;;;;-7.00;88.68;99455.34;4968953;28;20422;-79
2023/12/12 08:49:39;;;;;;;0.90;0.90;;;;;;;-6.97;88.58;99455.09;4969636;28;20119;-78
2023/12/12 08:52:07;;;;;;;0.80;0.80;;;;;;;-7.01;88.21;99443.19;4960839;28;20052;-79
2023/12/12 08:54:37;;;;;;;0.88;0.88;;;;;;;-7.02;88.12;99457.25;4952785;28;20085;-79
2023/12/12 08:57:04;;;;;;;0.90;0.90;;;;;;;-6.98;87.95;99442.13;4959113;28;20149;-79
2023/12/12 08:59:31;;;;;;;1.00;1.00;;;;;;;-6.99;87.88;99454.41;4980079;28;20055;-78
2023/12/12 09:02:01;;;;;;;0.90;0.90;;;;;;;-6.93;87.78;99444.38;4962176;28;20158;-80
2023/12/12 09:04:28;;;;;;;0.90;0.90;;;;;;;-6.91;87.33;99445.94;4942413;28;20073;-79
2023/12/12 09:06:58;;;;;;;0.80;0.80;;;;;;;-6.94;87.32;99445.31;4959637;28;20049;-80
2023/12/12 09:09:27;;;;;;;1.00;1.00;;;;;;;-6.88;87.27;99435.19;4961980;28;20139;-78
2023/12/12 09:11:55;;;;;;;1.40;1.30;;;;;;;-6.74;86.82;99444.56;4957890;28;20506;-77
2023/12/12 09:14:23;;;;;;;0.90;0.90;;;;;;;-6.57;86.30;99427.47;4970249;28;21271;-79
2023/12/12 09:16:50;;;;;;;1.10;1.10;;;;;;;-6.39;85.49;99448.75;4971825;28;20054;-78
2023/12/12 09:19:17;;;;;;;1.00;1.00;;;;;;;-6.29;85.56;99451.47;4971769;28;20051;-77
2023/12/12 09:21:48;;;;;;;1.00;1.00;;;;;;;-6.34;84.79;99452.66;4972145;28;20055;-78
2023/12/12 09:24:16;;;;;;;0.90;0.90;;;;;;;-6.50;84.84;99440.94;4970447;28;20054;-78
2023/12/12 09:26:43;;;;;;;1.00;1.00;;;;;;;-6.63;85.28;99447.16;4968937;28;20133;-78
2023/12/12 09:29:12;;;;;;;0.90;0.90;;;;;;;-6.62;85.55;99442.75;4971834;28;20170;-79
2023/12/12 09:31:39;;;;;;;1.00;1.00;;;;;;;-6.74;85.55;99436.69;4957515;28;20081;-78
2023/12/12 09:34:07;;;;;;;1.00;1.00;;;;;;;-6.72;85.47;99434.78;4972531;28;21147;-79
2023/12/12 09:36:34;;;;;;;0.90;0.90;;;;;;;-6.60;85.66;99433.78;4965281;28;20067;-78
2023/12/12 09:39:06;;;;;;;0.95;0.95;;;;;;;-6.56;85.38;99448.34;4960362;28;20103;-78
2023/12/12 09:41:38;;;;;;;0.90;0.90;;;;;;;-6.36;85.34;99430.94;4959785;28;20308;-77
2023/12/12 09:44:05;;;;;;;0.95;0.95;;;;;;;-6.35;84.45;99416.03;4964806;28;20461;-79
2023/12/12 09:46:33;;;;;;;0.93;0.93;;;;;;;-6.51;84.53;99436.63;4971049;28;20097;-78
2023/12/12 09:49:04;;;;;;;1.05;1.05;;;;;;;-6.45;84.75;99433.50;4970462;28;20062;-78
2023/12/12 09:51:32;;;;;;;1.10;1.10;;;;;;;-6.53;84.25;99447.25;4972256;28;20093;-79
2023/12/12 09:54:01;;;;;;;0.88;0.88;;;;;;;-6.62;84.03;99438.31;4973597;28;20470;-79
2023/12/12 09:56:28;;;;;;;0.90;0.90;;;;;;;-6.65;84.46;99435.97;4974880;28;20062;-80
2023/12/12 09:58:56;;;;;;;0.80;0.80;;;;;;;-6.69;84.46;99431.91;4965212;28;20055;-79
2023/12/12 10:01:23;;;;;;;0.90;0.90;;;;;;;-6.77;84.98;99423.81;4973247;28;20473;-77
2023/12/12 10:03:52;;;;;;;0.93;0.93;;;;;;;-6.98;84.84;99432.47;4970192;28;20053;-78
2023/12/12 10:06:20;;;;;;;0.70;0.70;;;;;;;-6.99;85.33;99430.81;4975435;28;20066;-78
2023/12/12 10:08:47;;;;;;;0.70;0.70;;;;;;;-6.98;85.61;99421.97;4983037;28;20118;-78
2023/12/12 10:11:15;;;;;;;0.82;0.82;;;;;;;-7.01;85.54;99432.72;4995703;28;20066;-78
2023/12/12 10:14:00;;;;;;;1.00;1.00;;;;;;;-7.10;85.74;99425.56;4978873;28;20058;-79
2023/12/12 10:16:31;;;;;;;0.90;0.90;;;;;;;-7.09;86.17;99435.13;4974393;28;20046;-78
2023/12/12 10:19:01;;;;;;;0.93;0.93;;;;;;;-7.05;86.29;99433.91;4977895;28;20394;-78
2023/12/12 10:21:29;;;;;;;0.90;0.90;;;;;;;-7.01;86.47;99442.38;4982301;28;20043;-78
2023/12/12 10:23:57;;;;;;;1.02;1.02;;;;;;;-7.07;86.10;99443.66;4959928;28;20473;-78
2023/12/12 10:26:26;;;;;;;0.77;0.77;;;;;;;-7.07;86.20;99441.03;4966188;28;20129;-78
2023/12/12 10:28:56;;;;;;;1.00;1.00;;;;;;;-7.05;86.29;99426.03;4963035;28;20131;-79
2023/12/12 10:31:24;;;;;;;0.98;0.98;;;;;;;-7.00;86.19;99434.38;4964890;28;20057;-79
2023/12/12 10:33:56;;;;;;;1.10;1.10;;;;;;;-7.00;86.14;99423.88;4966435;28;20052;-78
2023/12/12 10:36:27;;;;;;;1.00;1.00;;;;;;;-6.93;85.91;99428.66;4970189;28;20529;-78
2023/12/12 10:39:04;;;;;;;0.90;0.90;;;;;;;-6.94;85.81;99416.47;4969581;28;20129;-79
2023/12/12 10:41:31;;;;;;;1.30;1.20;;;;;;;-6.91;85.42;99426.72;4973584;28;20051;-79
2023/12/12 10:44:05;;;;;;;0.98;0.98;;;;;;;-7.01;85.06;99426.63;4974074;28;20506;-79
2023/12/12 10:46:36;;;;;;;1.00;1.00;;;;;;;-7.05;85.32;99423.41;4974257;28;20082;-78
2023/12/12 10:49:04;;;;;;;0.70;0.70;;;;;;;-7.05;84.85;99423.41;4967859;28;20133;-78
2023/12/12 10:51:31;;;;;;;0.80;0.80;;;;;;;-7.20;85.06;99420.19;4957156;28;20051;-79
2023/12/12 10:53:59;;;;;;;0.90;0.90;;;;;;;-7.19;85.06;99423.66;4973984;28;20134;-79
2023/12/12 10:56:28;;;;;;;0.90;0.90;;;;;;;-7.23;84.97;99417.81;4963292;28;20066;-79
2023/12/12 10:58:56;;;;;;;0.80;0.80;;;;;;;-7.32;85.21;99433.44;4982962;28;20150;-77
2023/12/12 11:01:47;;;;;;;0.90;0.90;;;;;;;-7.29;85.59;99417.47;4936673;28;20146;-78
2023/12/12 11:04:15;;;;;;;1.00;1.00;;;;;;;-7.31;85.62;99419.41;4968993;28;20059;-78
2023/12/12 11:06:43;;;;;;;0.88;0.88;;;;;;;-7.32;85.62;99429.03;4933306;29;20047;-78
2023/12/12 11:09:11;;;;;;;0.90;0.90;;;;;;;-7.35;85.67;99434.53;4920565;29;20544;-79
2023/12/12 11:11:43;;;;;;;1.00;1.00;;;;;;;-7.41;86.06;99442.88;4936066;29;20082;-79
2023/12/12 11:14:11;;;;;;;1.08;1.08;;;;;;;-7.52;86.39;99421.88;4936378;29;20055;-78
2023/12/12 11:16:39;;;;;;;0.90;0.90;;;;;;;-7.44;86.40;99403.78;4952262;29;20047;-79
2023/12/12 11:19:17;;;;;;;0.90;0.90;;;;;;;-7.47;86.41;99438.94;4952304;29;20055;-78
2023/12/12 11:21:47;;;;;;;0.88;0.88;;;;;;;-7.42;86.81;99433.31;4953139;29;20110;-79
2023/12/12 11:24:16;;;;;;;0.80;0.80;;;;;;;-7.47;86.50;99438.94;4952983;28;20051;-78
2023/12/12 11:26:46;;;;;;;0.95;0.95;;;;;;;-7.42;86.62;99433.31;4969231;28;20140;-78
2023/12/12 11:29:15;;;;;;;0.88;0.88;;;;;;;-7.45;86.38;99433.56;4964992;28;20070;-78
2023/12/12 11:32:13;;;;;;;1.00;1.00;;;;;;;-7.57;86.73;99438.00;4948444;28;20138;-79
2023/12/12 11:34:41;;;;;;;0.82;0.82;;;;;;;-7.60;86.47;99435.59;4919613;29;20111;-79
2023/12/12 11:37:08;;;;;;;1.00;1.00;;;;;;;-7.56;86.83;99441.44;4932399;29;20052;-79
2023/12/12 11:39:42;;;;;;;0.80;0.80;;;;;;;-7.55;86.83;99450.97;4942485;29;20054;-79
2023/12/12 11:42:24;;;;;;;0.80;0.80;;;;;;;-7.56;87.00;99444.06;4943863;29;20114;-79